createdAt,value
2018-04-23T00:00:29.506Z,15.30
2018-04-23T00:02:57.832Z,9.30
2018-04-23T00:05:25.363Z,14.03
2018-04-23T00:07:52.900Z,11.07
2018-04-23T00:10:21.220Z,8.50
2018-04-23T00:12:48.807Z,8.63
2018-04-23T00:15:16.454Z,9.03
2018-04-23T00:17:43.973Z,7.70
2018-04-23T00:20:11.497Z,9.10
2018-04-23T00:22:39.054Z,8.93
2018-04-23T00:25:06.691Z,9.10
2018-04-23T00:27:34.275Z,8.97
2018-04-23T00:30:02.618Z,9.97
2018-04-23T00:32:30.256Z,8.60
2018-04-23T00:34:57.874Z,13.93
2018-04-23T00:37:25.480Z,8.03
2018-04-23T00:39:53.041Z,12.93
2018-04-23T00:42:20.594Z,7.93
2018-04-23T00:44:48.207Z,14.83
2018-04-23T00:47:16.511Z,12.80
2018-04-23T00:49:44.040Z,11.03
2018-04-23T00:52:13.098Z,10.10
2018-04-23T00:54:40.628Z,9.40
2018-04-23T00:57:08.150Z,9.60
2018-04-23T00:59:35.693Z,11.60
2018-04-23T01:02:03.237Z,14.60
2018-04-23T01:04:30.815Z,9.77
2018-04-23T01:06:58.338Z,7.30
2018-04-23T01:09:25.905Z,12.07
2018-04-23T01:11:53.428Z,7.23
2018-04-23T01:14:21.742Z,10.07
2018-04-23T01:16:49.403Z,7.17
2018-04-23T01:19:16.926Z,10.73
2018-04-23T01:21:45.256Z,12.60
2018-04-23T01:24:12.811Z,12.20
2018-04-23T01:26:40.378Z,10.00
2018-04-23T01:29:08.007Z,19.93
2018-04-23T01:31:35.610Z,9.33
2018-04-23T01:34:03.207Z,10.90
2018-04-23T01:36:31.497Z,12.57
2018-04-23T01:38:59.050Z,12.63
2018-04-23T01:41:26.659Z,10.10
2018-04-23T01:43:54.226Z,7.70
2018-04-23T01:46:21.780Z,8.23
2018-04-23T01:48:49.306Z,7.00
2018-04-23T01:51:16.870Z,9.00
2018-04-23T01:53:44.424Z,12.50
2018-04-23T01:56:11.957Z,12.07
2018-04-23T01:58:40.309Z,15.50
2018-04-23T02:01:07.839Z,10.07
2018-04-23T02:03:35.370Z,7.90
2018-04-23T02:06:02.920Z,8.00
2018-04-23T02:08:30.463Z,11.47
2018-04-23T02:10:58.881Z,14.87
2018-04-23T02:13:26.434Z,11.60
2018-04-23T02:15:54.130Z,12.67
2018-04-23T02:18:21.703Z,14.80
2018-04-23T02:20:49.353Z,12.47
2018-04-23T02:23:16.900Z,15.97
2018-04-23T02:25:44.454Z,11.30
2018-04-23T02:28:11.981Z,8.80
2018-04-23T02:30:39.589Z,10.13
2018-04-23T02:33:07.891Z,14.27
2018-04-23T02:35:35.402Z,9.60
2018-04-23T02:38:02.975Z,14.50
2018-04-23T02:40:30.531Z,12.17
2018-04-23T02:42:58.897Z,10.30
2018-04-23T02:45:27.210Z,11.63
2018-04-23T02:47:54.749Z,10.53
2018-04-23T02:50:22.387Z,10.90
2018-04-23T02:52:49.947Z,11.13
2018-04-23T02:55:17.542Z,15.80
2018-04-23T02:57:45.162Z,9.77
2018-04-23T03:00:12.726Z,12.43
2018-04-23T03:02:40.326Z,16.20
2018-04-23T03:05:07.900Z,11.63
2018-04-23T03:07:36.229Z,8.73
2018-04-23T03:10:03.887Z,12.90
2018-04-23T03:12:31.500Z,16.47
2018-04-23T03:14:59.139Z,11.10
2018-04-23T03:17:26.828Z,11.50
2018-04-23T03:19:55.175Z,14.43
2018-04-23T03:22:22.693Z,14.10
2018-04-23T03:24:50.279Z,16.53
2018-04-23T03:27:17.837Z,13.43
2018-04-23T03:29:45.393Z,12.70
2018-04-23T03:32:12.940Z,14.17
2018-04-23T03:34:40.642Z,10.27
2018-04-23T03:37:08.277Z,13.53
2018-04-23T03:39:35.802Z,13.43
2018-04-23T03:42:04.146Z,9.57
2018-04-23T03:44:31.783Z,13.70
2018-04-23T03:46:59.367Z,11.73
2018-04-23T03:49:26.986Z,13.70
2018-04-23T03:51:54.559Z,12.07
2018-04-23T03:54:22.090Z,14.30
2018-04-23T03:56:49.698Z,10.80
2018-04-23T03:59:17.254Z,11.13
2018-04-23T04:01:44.770Z,14.33
2018-04-23T04:04:12.290Z,9.33
2018-04-23T04:06:39.871Z,17.10
2018-04-23T04:09:08.162Z,12.07
2018-04-23T04:11:35.715Z,14.90
2018-04-23T04:14:15.513Z,9.73
2018-04-23T04:16:54.946Z,11.53
2018-04-23T04:19:22.602Z,10.50
2018-04-23T04:21:50.134Z,12.23
2018-04-23T04:24:17.691Z,13.07
2018-04-23T04:26:45.249Z,21.37
2018-04-23T04:29:13.639Z,12.40
2018-04-23T04:31:41.208Z,11.87
2018-04-23T04:34:08.774Z,17.33
2018-04-23T04:36:36.326Z,23.47
2018-04-23T04:39:03.899Z,8.00
2018-04-23T04:41:31.467Z,11.53
2018-04-23T04:43:59.110Z,12.67
2018-04-23T04:46:26.653Z,10.20
2018-04-23T04:48:54.228Z,7.60
2018-04-23T04:51:21.826Z,4.80
2018-04-23T04:53:49.396Z,9.63
2018-04-23T04:56:17.715Z,6.67
2018-04-23T04:58:45.264Z,7.70
2018-04-23T05:01:12.859Z,6.40
2018-04-23T05:03:40.377Z,10.40
2018-04-23T05:06:07.942Z,6.80
2018-04-23T05:08:35.531Z,6.60
2018-04-23T05:11:03.081Z,5.27
2018-04-23T05:13:30.658Z,5.37
2018-04-23T05:15:58.266Z,5.63
2018-04-23T05:18:25.809Z,4.23
2018-04-23T05:20:54.319Z,6.40
2018-04-23T05:23:21.870Z,4.47
2018-04-23T05:25:49.474Z,4.20
2018-04-23T05:28:17.152Z,8.37
2018-04-23T05:30:44.674Z,5.00
2018-04-23T05:33:13.066Z,4.47
2018-04-23T05:35:40.675Z,4.63
2018-04-23T05:38:08.969Z,9.47
2018-04-23T05:40:36.535Z,11.17
2018-04-23T05:43:04.103Z,4.60
2018-04-23T05:45:31.645Z,7.10
2018-04-23T05:47:59.266Z,7.23
2018-04-23T05:50:26.887Z,5.53
2018-04-23T05:52:54.393Z,6.03
2018-04-23T05:55:21.921Z,6.67
2018-04-23T05:57:49.556Z,5.13
2018-04-23T06:00:17.135Z,7.67
2018-04-23T06:02:44.671Z,9.03
2018-04-23T06:05:12.238Z,7.20
2018-04-23T06:07:40.559Z,7.23
2018-04-23T06:10:08.078Z,4.70
2018-04-23T06:12:35.603Z,5.70
2018-04-23T06:15:03.933Z,6.57
2018-04-23T06:17:31.602Z,5.47
2018-04-23T06:19:59.118Z,5.50
2018-04-23T06:22:26.653Z,6.23
2018-04-23T06:24:54.944Z,8.20
2018-04-23T06:27:22.491Z,8.77
2018-04-23T06:29:50.089Z,7.43
2018-04-23T06:32:17.641Z,6.23
2018-04-23T06:34:45.221Z,18.77
2018-04-23T06:37:12.779Z,15.67
2018-04-23T06:39:40.297Z,10.07
2018-04-23T06:42:07.902Z,4.73
2018-04-23T06:44:35.462Z,7.00
2018-04-23T06:47:02.981Z,5.90
2018-04-23T06:49:30.550Z,5.67
2018-04-23T06:51:58.111Z,8.53
2018-04-23T06:54:26.359Z,7.27
2018-04-23T06:56:54.662Z,7.70
2018-04-23T06:59:22.182Z,8.93
2018-04-23T07:01:50.547Z,6.60
2018-04-23T07:04:18.190Z,8.67
2018-04-23T07:06:46.530Z,8.80
2018-04-23T07:09:14.098Z,7.23
2018-04-23T07:11:41.642Z,9.07
2018-04-23T07:14:09.206Z,8.87
2018-04-23T07:16:36.846Z,14.10
2018-04-23T07:19:05.287Z,8.00
2018-04-23T07:21:32.858Z,10.07
2018-04-23T07:24:00.414Z,7.90
2018-04-23T07:26:28.082Z,12.30
2018-04-23T07:28:55.661Z,9.53
2018-04-23T07:31:23.945Z,8.60
2018-04-23T07:33:52.343Z,7.93
2018-04-23T07:36:19.885Z,7.90
2018-04-23T07:38:48.199Z,18.50
2018-04-23T07:41:15.783Z,13.43
2018-04-23T07:43:43.397Z,9.00
2018-04-23T07:46:10.968Z,11.87
2018-04-23T07:48:38.539Z,19.50
2018-04-23T07:51:06.058Z,13.23
2018-04-23T07:53:34.340Z,14.80
2018-04-23T07:56:01.915Z,10.60
2018-04-23T07:58:29.514Z,23.60
2018-04-23T08:00:57.071Z,15.63
2018-04-23T08:03:24.723Z,13.23
2018-04-23T08:05:52.289Z,12.50
2018-04-23T08:08:19.867Z,22.63
2018-04-23T08:10:47.402Z,13.10
2018-04-23T08:13:14.925Z,12.93
2018-04-23T08:15:42.643Z,18.93
2018-04-23T08:18:10.286Z,19.50
2018-04-23T08:20:37.865Z,19.20
2018-04-23T08:23:07.976Z,18.50
2018-04-23T08:25:35.540Z,18.27
2018-04-23T08:28:03.898Z,15.03
2018-04-23T08:30:31.467Z,20.97
2018-04-23T08:32:58.999Z,16.93
2018-04-23T08:35:26.570Z,13.90
2018-04-23T08:37:54.279Z,19.60
2018-04-23T08:40:22.590Z,15.43
2018-04-23T08:42:50.121Z,18.27
2018-04-23T08:45:18.533Z,17.27
2018-04-23T08:47:46.092Z,18.20
2018-04-23T08:50:13.634Z,14.37
2018-04-23T08:52:41.239Z,14.93
2018-04-23T08:55:08.795Z,19.10
2018-04-23T08:57:36.318Z,23.50
2018-04-23T09:00:03.919Z,16.13
2018-04-23T09:02:31.430Z,13.73
2018-04-23T09:04:59.010Z,13.53
2018-04-23T09:07:26.567Z,15.10
2018-04-23T09:09:54.146Z,18.00
2018-04-23T09:12:21.789Z,14.33
2018-04-23T09:14:49.376Z,17.00
2018-04-23T09:17:17.713Z,15.40
2018-04-23T09:19:45.246Z,12.53
2018-04-23T09:22:12.804Z,15.93
2018-04-23T09:24:41.148Z,17.10
2018-04-23T09:27:08.707Z,20.67
2018-04-23T09:29:36.274Z,21.87
2018-04-23T09:32:05.365Z,19.70
2018-04-23T09:34:32.977Z,20.20
2018-04-23T09:37:00.557Z,14.80
2018-04-23T09:39:28.111Z,21.80
2018-04-23T09:41:55.629Z,10.57
2018-04-23T09:44:23.239Z,19.93
2018-04-23T09:46:50.866Z,12.57
2018-04-23T09:49:19.173Z,15.70
2018-04-23T09:51:46.723Z,17.60
2018-04-23T09:54:14.271Z,17.20
2018-04-23T09:56:41.801Z,17.10
2018-04-23T09:59:09.406Z,22.63
2018-04-23T10:01:36.980Z,20.00
2018-04-23T10:04:06.362Z,19.50
2018-04-23T10:06:33.915Z,17.00
2018-04-23T10:09:01.512Z,25.33
2018-04-23T10:11:29.053Z,20.87
2018-04-23T10:13:56.609Z,21.67
2018-04-23T10:16:24.194Z,22.67
2018-04-23T10:18:51.854Z,24.80
2018-04-23T10:21:19.485Z,20.13
2018-04-23T10:23:47.019Z,18.73
2018-04-23T10:26:15.466Z,17.17
2018-04-23T10:28:42.989Z,20.47
2018-04-23T10:31:10.565Z,18.83
2018-04-23T10:33:38.082Z,19.83
2018-04-23T10:36:06.410Z,18.40
2018-04-23T10:38:34.042Z,18.40
2018-04-23T10:41:01.642Z,20.60
2018-04-23T10:43:29.230Z,26.33
2018-04-23T10:45:57.522Z,22.83
2018-04-23T10:48:25.098Z,22.53
2018-04-23T10:50:52.650Z,15.53
2018-04-23T10:53:20.226Z,20.00
2018-04-23T10:55:47.779Z,19.60
2018-04-23T10:58:15.349Z,21.33
2018-04-23T11:00:42.891Z,26.37
2018-04-23T11:03:10.494Z,25.90
2018-04-23T11:05:38.094Z,30.03
2018-04-23T11:08:05.625Z,23.30
2018-04-23T11:10:33.146Z,22.03
2018-04-23T11:13:00.705Z,25.10
2018-04-23T11:15:28.246Z,21.10
2018-04-23T11:17:55.772Z,28.17
2018-04-23T11:20:24.215Z,26.83
2018-04-23T11:22:51.774Z,35.93
2018-04-23T11:25:19.308Z,24.97
2018-04-23T11:27:46.890Z,32.13
2018-04-23T11:30:14.455Z,26.10
2018-04-23T11:32:42.064Z,26.57
2018-04-23T11:35:10.383Z,21.23
2018-04-23T11:37:37.947Z,19.70
2018-04-23T11:40:05.529Z,26.60
2018-04-23T11:42:33.087Z,26.60
2018-04-23T11:45:00.726Z,24.47
2018-04-23T11:47:28.264Z,26.40
2018-04-23T11:49:55.798Z,20.20
2018-04-23T11:52:23.346Z,52.87
2018-04-23T11:54:51.701Z,23.40
2018-04-23T11:57:19.282Z,25.97
2018-04-23T11:59:47.585Z,29.83
2018-04-23T12:02:15.186Z,26.77
2018-04-23T12:04:42.728Z,22.17
2018-04-23T12:07:10.372Z,22.13
2018-04-23T12:09:37.970Z,24.60
2018-04-23T12:12:06.297Z,33.63
2018-04-23T12:14:33.902Z,29.30
2018-04-23T12:17:01.581Z,19.57
2018-04-23T12:19:29.251Z,19.43
2018-04-23T12:21:57.561Z,18.90
2018-04-23T12:24:25.158Z,23.07
2018-04-23T12:26:52.783Z,18.40
2018-04-23T12:29:20.391Z,18.83
2018-04-23T12:31:48.023Z,19.30
2018-04-23T12:34:15.674Z,18.23
2018-04-23T12:36:43.194Z,18.57
2018-04-23T12:39:10.715Z,19.30
2018-04-23T12:41:38.373Z,13.40
2018-04-23T12:44:05.913Z,20.87
2018-04-23T12:46:33.485Z,16.83
2018-04-23T12:49:01.045Z,14.93
2018-04-23T12:51:28.602Z,17.30
2018-04-23T12:53:56.188Z,15.90
2018-04-23T12:56:23.746Z,15.37
2018-04-23T12:58:51.314Z,21.47
2018-04-23T13:01:18.934Z,18.07
2018-04-23T13:03:46.511Z,21.93
2018-04-23T13:06:14.054Z,19.23
2018-04-23T13:08:41.574Z,12.20
2018-04-23T13:11:09.985Z,13.00
2018-04-23T13:13:38.401Z,10.10
2018-04-23T13:16:05.969Z,17.23
2018-04-23T13:18:33.489Z,16.43
2018-04-23T13:21:01.025Z,10.03
2018-04-23T13:23:28.575Z,18.10
2018-04-23T13:25:56.923Z,9.30
2018-04-23T13:28:24.458Z,10.23
2018-04-23T13:30:52.018Z,14.50
2018-04-23T13:33:19.594Z,10.10
2018-04-23T13:35:47.233Z,17.57
2018-04-23T13:38:14.834Z,11.00
2018-04-23T13:40:43.124Z,20.60
2018-04-23T13:43:11.483Z,15.40
2018-04-23T13:45:39.123Z,11.70
2018-04-23T13:48:06.687Z,19.03
2018-04-23T13:50:34.334Z,10.30
2018-04-23T13:53:01.914Z,12.97
2018-04-23T13:55:29.475Z,8.93
2018-04-23T13:57:57.079Z,12.43
2018-04-23T14:00:24.631Z,12.63
2018-04-23T14:02:52.248Z,13.30
2018-04-23T14:05:19.878Z,12.90
2018-04-23T14:07:47.462Z,14.63
2018-04-23T14:10:15.052Z,9.50
2018-04-23T14:12:43.345Z,13.23
2018-04-23T14:15:11.664Z,11.17
2018-04-23T14:17:39.263Z,19.20
2018-04-23T14:20:07.591Z,14.43
2018-04-23T14:22:35.275Z,17.03
2018-04-23T14:25:02.907Z,17.07
2018-04-23T14:27:30.467Z,10.73
2018-04-23T14:29:58.016Z,7.57
2018-04-23T14:32:25.548Z,9.87
2018-04-23T14:34:53.850Z,10.30
2018-04-23T14:37:21.434Z,15.87
2018-04-23T14:39:49.011Z,9.70
2018-04-23T14:42:16.546Z,13.07
2018-04-23T14:44:44.098Z,9.50
2018-04-23T14:47:11.620Z,9.73
2018-04-23T14:49:39.896Z,9.07
2018-04-23T14:52:08.208Z,8.50
2018-04-23T14:54:35.800Z,16.27
2018-04-23T14:57:03.351Z,10.33
2018-04-23T14:59:30.906Z,8.97
2018-04-23T15:01:58.458Z,12.37
2018-04-23T15:04:26.001Z,9.13
2018-04-23T15:06:53.562Z,7.47
2018-04-23T15:09:21.110Z,12.43
2018-04-23T15:11:48.668Z,9.03
2018-04-23T15:14:16.230Z,12.87
2018-04-23T15:16:43.806Z,11.50
2018-04-23T15:19:11.326Z,7.83
2018-04-23T15:21:39.645Z,16.70
2018-04-23T15:24:07.319Z,10.73
2018-04-23T15:26:34.888Z,7.70
2018-04-23T15:29:02.438Z,10.40
2018-04-23T15:31:29.965Z,10.50
2018-04-23T15:33:57.511Z,8.90
2018-04-23T15:36:25.068Z,7.70
2018-04-23T15:38:53.367Z,5.97
2018-04-23T15:41:20.888Z,12.60
2018-04-23T15:43:49.253Z,12.07
2018-04-23T15:46:16.831Z,10.97
2018-04-23T15:48:45.128Z,6.13
2018-04-23T15:51:12.671Z,7.90
2018-04-23T15:53:40.982Z,8.80
2018-04-23T15:56:08.544Z,5.70
2018-04-23T15:58:36.104Z,14.60
2018-04-23T16:01:03.658Z,12.70
2018-04-23T16:03:31.266Z,6.23
2018-04-23T16:05:58.799Z,8.67
2018-04-23T16:08:26.369Z,9.97
2018-04-23T16:10:54.663Z,6.97
2018-04-23T16:13:22.232Z,12.90
2018-04-23T16:15:50.549Z,19.33
2018-04-23T16:18:18.072Z,6.83
2018-04-23T16:20:46.380Z,8.60
2018-04-23T16:23:13.928Z,7.50
2018-04-23T16:25:41.467Z,5.53
2018-04-23T16:28:09.878Z,10.90
2018-04-23T16:30:37.504Z,5.47
2018-04-23T16:33:05.782Z,5.97
2018-04-23T16:35:34.087Z,7.27
2018-04-23T16:38:01.672Z,7.73
2018-04-23T16:40:29.231Z,8.60
2018-04-23T16:42:56.791Z,9.63
2018-04-23T16:45:24.340Z,6.00
2018-04-23T16:47:51.904Z,9.50
2018-04-23T16:50:19.466Z,7.10
2018-04-23T16:52:47.141Z,7.00
2018-04-23T16:55:14.658Z,7.50
2018-04-23T16:57:42.232Z,8.43
2018-04-23T17:00:09.812Z,15.07
2018-04-23T17:02:37.327Z,7.53
2018-04-23T17:05:04.935Z,8.00
2018-04-23T17:07:32.501Z,7.50
2018-04-23T17:10:00.052Z,8.60
2018-04-23T17:12:27.598Z,9.83
2018-04-23T17:14:55.167Z,10.30
2018-04-23T17:17:22.809Z,9.07
2018-04-23T17:19:50.366Z,6.20
2018-04-23T17:22:17.884Z,8.70
2018-04-23T17:24:46.219Z,12.17
2018-04-23T17:27:13.775Z,7.90
2018-04-23T17:29:41.314Z,10.93
2018-04-23T17:32:08.851Z,9.47
2018-04-23T17:34:37.134Z,7.97
2018-04-23T17:37:04.722Z,7.10
2018-04-23T17:39:32.234Z,10.47
2018-04-23T17:42:00.558Z,7.73
2018-04-23T17:44:28.854Z,9.67
2018-04-23T17:46:56.375Z,14.33
2018-04-23T17:49:23.954Z,8.57
2018-04-23T17:51:51.531Z,7.87
2018-04-23T17:54:19.062Z,9.70
2018-04-23T17:56:46.629Z,10.20
2018-04-23T17:59:14.207Z,8.60
2018-04-23T18:01:41.781Z,9.83
2018-04-23T18:04:09.345Z,9.87
2018-04-23T18:06:36.960Z,9.50
2018-04-23T18:09:05.310Z,11.80
2018-04-23T18:11:33.663Z,10.73
2018-04-23T18:14:02.702Z,9.67
2018-04-23T18:16:30.277Z,10.40
2018-04-23T18:18:57.841Z,10.77
2018-04-23T18:21:25.388Z,12.03
2018-04-23T18:23:52.977Z,8.80
2018-04-23T18:26:20.571Z,9.07
2018-04-23T18:28:48.857Z,10.47
2018-04-23T18:31:17.171Z,11.67
2018-04-23T18:33:44.802Z,12.23
2018-04-23T18:36:12.333Z,23.70
2018-04-23T18:38:39.918Z,17.47
2018-04-23T18:41:07.442Z,12.53
2018-04-23T18:43:35.168Z,11.10
2018-04-23T18:46:02.730Z,14.37
2018-04-23T18:48:30.315Z,13.20
2018-04-23T18:50:57.845Z,14.83
2018-04-23T18:53:25.406Z,11.73
2018-04-23T18:55:52.942Z,10.17
2018-04-23T18:58:20.500Z,11.13
2018-04-23T19:00:48.118Z,11.27
2018-04-23T19:03:15.744Z,15.93
2018-04-23T19:05:43.305Z,13.20
2018-04-23T19:08:10.853Z,11.83
2018-04-23T19:10:38.444Z,9.87
2018-04-23T19:13:06.008Z,12.00
2018-04-23T19:15:33.645Z,11.60
2018-04-23T19:18:01.213Z,9.10
2018-04-23T19:20:28.800Z,12.47
2018-04-23T19:22:57.862Z,11.03
2018-04-23T19:25:25.447Z,11.43
2018-04-23T19:27:53.035Z,11.53
2018-04-23T19:30:21.357Z,11.13
2018-04-23T19:32:48.917Z,11.03
2018-04-23T19:35:16.458Z,9.93
2018-04-23T19:37:44.007Z,15.07
2018-04-23T19:40:11.573Z,10.03
2018-04-23T19:42:39.167Z,15.40
2018-04-23T19:45:06.699Z,12.83
2018-04-23T19:47:34.287Z,11.27
2018-04-23T19:50:01.866Z,10.63
2018-04-23T19:52:30.157Z,15.97
2018-04-23T19:54:57.684Z,12.40
2018-04-23T19:57:25.361Z,13.17
2018-04-23T19:59:52.938Z,13.67
2018-04-23T20:02:21.302Z,18.30
2018-04-23T20:04:49.614Z,12.70
2018-04-23T20:07:17.204Z,13.00
2018-04-23T20:09:44.762Z,13.10
2018-04-23T20:12:12.319Z,12.97
2018-04-23T20:14:39.991Z,17.20
2018-04-23T20:17:08.226Z,14.47
2018-04-23T20:19:36.572Z,21.53
2018-04-23T20:22:04.935Z,21.53
2018-04-23T20:24:32.488Z,13.60
2018-04-23T20:27:00.043Z,17.97
2018-04-23T20:29:27.610Z,16.50
2018-04-23T20:31:55.184Z,16.90
2018-04-23T20:34:24.246Z,16.70
2018-04-23T20:36:51.810Z,18.70
2018-04-23T20:39:19.502Z,18.10
2018-04-23T20:41:47.839Z,17.03
2018-04-23T20:44:15.494Z,17.47
2018-04-23T20:46:43.771Z,24.90
2018-04-23T20:49:11.440Z,17.57
2018-04-23T20:51:38.986Z,22.20
2018-04-23T20:54:06.534Z,20.17
2018-04-23T20:56:34.086Z,16.57
2018-04-23T20:59:01.643Z,20.03
2018-04-23T21:01:29.991Z,20.83
2018-04-23T21:03:57.517Z,19.47
2018-04-23T21:06:25.080Z,18.30
2018-04-23T21:08:52.673Z,18.03
2018-04-23T21:11:20.299Z,19.50
2018-04-23T21:13:47.864Z,17.23
2018-04-23T21:16:15.409Z,16.97
2018-04-23T21:18:42.986Z,17.70
2018-04-23T21:21:10.536Z,20.20
2018-04-23T21:23:38.200Z,22.00
2018-04-23T21:26:05.797Z,23.10
2018-04-23T21:28:33.326Z,20.90
2018-04-23T21:31:00.971Z,18.80
2018-04-23T21:33:28.535Z,17.93
2018-04-23T21:35:56.215Z,16.77
2018-04-23T21:38:23.783Z,16.40
2018-04-23T21:40:52.870Z,16.00
2018-04-23T21:43:20.419Z,16.80
2018-04-23T21:45:47.982Z,19.70
2018-04-23T21:48:15.566Z,21.10
2018-04-23T21:50:43.918Z,19.07
2018-04-23T21:53:11.516Z,18.07
2018-04-23T21:55:39.035Z,18.13
2018-04-23T21:58:06.586Z,19.27
2018-04-23T22:00:34.126Z,17.47
2018-04-23T22:03:01.677Z,22.10
2018-04-23T22:05:29.290Z,30.30
2018-04-23T22:07:56.875Z,22.63
2018-04-23T22:10:25.235Z,17.20
2018-04-23T22:12:52.869Z,17.97
2018-04-23T22:15:20.426Z,18.80
2018-04-23T22:17:47.982Z,18.93
2018-04-23T22:20:15.637Z,27.70
2018-04-23T22:22:43.166Z,19.70
2018-04-23T22:25:11.505Z,19.50
2018-04-23T22:27:39.102Z,19.50
2018-04-23T22:30:07.413Z,18.00
2018-04-23T22:32:34.938Z,18.13
2018-04-23T22:35:02.518Z,19.73
2018-04-23T22:37:30.070Z,18.07
2018-04-23T22:39:57.663Z,21.43
2018-04-23T22:42:25.182Z,19.53
2018-04-23T22:44:53.526Z,18.73
2018-04-23T22:47:21.146Z,20.63
2018-04-23T22:49:48.739Z,20.20
2018-04-23T22:52:16.283Z,28.03
2018-04-23T22:54:43.854Z,28.20
2018-04-23T23:00:02.211Z,21.20
2018-04-23T23:02:29.750Z,25.63
2018-04-23T23:04:57.320Z,24.43
2018-04-23T23:07:24.915Z,24.17
2018-04-23T23:09:52.442Z,24.70
2018-04-23T23:12:19.961Z,24.00
2018-04-23T23:14:47.505Z,23.30
2018-04-23T23:17:15.823Z,23.47
2018-04-23T23:19:43.382Z,20.90
2018-04-23T23:22:13.653Z,28.63
2018-04-23T23:24:41.977Z,22.40
2018-04-23T23:27:09.561Z,24.20
2018-04-23T23:29:37.115Z,19.73
2018-04-23T23:32:04.654Z,22.77
2018-04-23T23:34:32.200Z,20.97
2018-04-23T23:36:59.750Z,23.20
2018-04-23T23:39:27.330Z,22.10
2018-04-23T23:41:54.889Z,23.83
2018-04-23T23:44:22.410Z,23.37
2018-04-23T23:46:50.724Z,25.70
2018-04-23T23:49:18.331Z,21.00
2018-04-23T23:51:46.686Z,21.40
2018-04-23T23:54:14.214Z,20.47
2018-04-23T23:56:41.818Z,18.70
2018-04-23T23:59:09.376Z,19.23
